Renderfarm Status:OK
Avg Time Per Frame:15.4 min/frame
Total Users Today:5
Total CPU Time Today:198.29 Hours
Total Frames Waiting:0
Today's CPU Champion:anroan20 / 2 days 9 hr
Active Jobs
Job User Frames Renderer Total CPU Average Start End Status
75271 kmcnee21 99 houdini 2.62 Hours 1.8 min 08/20 01:18 AM Rendering
75269 chulee22 100 arnold 24.55 Hours 17.7 min 08/20 12:54 AM Rendering
75265 garnol21 100 houdini 31.78 Hours 43.3 min 08/20 12:21 AM Rendering
Completed Jobs
Job User Frames Renderer Total CPU Average Start End Speedup Status
75270 anroan20 100 houdini 16.29 Hours 9.8 min 08/20 01:06 AM 08/20 01:24 AM 52.6x Complete!
75268 kmcnee21 21 houdini 5.05 Hours 14.4 min 08/20 12:52 AM 08/20 01:16 AM 12.5x Complete!
75267 anroan20 100 houdini 16.68 Hours 10 min 08/20 12:35 AM 08/20 01:03 AM 35.5x Complete!
75266 jfortu23 100 arnold 17.99 Hours 10.8 min 08/20 12:25 AM 08/20 12:51 AM 41.1x Complete!
75264 kmcnee21 99 houdini 39.08 Hours 23.7 min 08/20 12:15 AM 08/20 12:49 AM 69.3x Complete!
75263 anroan20 100 houdini 24.32 Hours 14.6 min 08/20 12:07 AM 08/20 12:29 AM 65.9x Complete!
75262 jfortu23 100 arnold 20.59 Hours 12.4 min 08/19 11:37 PM 08/20 12:10 AM 37.7x Complete!
75261 njones26 100 arnold 33.94 Hours 20.4 min 08/19 11:37 PM 08/20 12:22 AM 45.3x Complete!
75260 anroan20 99 houdini 25.3 Hours 15.3 min 08/19 11:30 PM 08/19 11:57 PM 54.3x Complete!
75259 kmcnee21 99 houdini 13.54 Hours 8.2 min 08/19 11:28 PM 08/20 12:15 AM 17.5x Complete!
75258 jfortu23 81 arnold 4.52 Hours 3.3 min 08/19 11:13 PM 08/19 11:24 PM 25.1x Complete!
75257 mclayt22 2 arnold 1.67 Hours 50.1 min 08/19 11:10 PM 08/20 12:00 AM 2x Complete!
75256 mbange20 2 arnold 1.32 Hours 39.6 min 08/19 11:03 PM 08/20 01:03 AM 0.7x Complete!
75255 jfortu23 100 arnold 16.36 Hours 9.8 min 08/19 10:27 PM 08/19 10:52 PM 38.6x Complete!
75254 jfortu23 90 arnold 4.33 Hours 2.9 min 08/19 10:15 PM 08/19 10:25 PM 24.2x Complete!
75253 csteve26 81 houdini 76.46 Hours 56.6 min 08/19 10:08 PM 08/19 11:44 PM 48.1x Complete!
75252 jfortu23 100 arnold 17.51 Hours 10.5 min 08/19 09:45 PM 08/19 10:08 PM 46.4x Complete!
75251 jfortu23 100 arnold 8.95 Hours 5.4 min 08/19 09:18 PM 08/19 09:29 PM 46.8x Complete!
75250 dfowler 25 houdini 14.54 Hours 34.9 min 08/19 09:16 PM 08/19 10:15 PM 14.8x Complete!
75249 jfortu23 100 arnold 16.29 Hours 9.8 min 08/19 08:53 PM 08/19 09:15 PM 44.3x Complete!
75248 mbange20 5 arnold 4.18 Hours 50.1 min 08/19 08:48 PM 08/19 10:48 PM 2.1x Complete!
75247 jfortu23 90 arnold 15.21 Hours 10.1 min 08/19 08:13 PM 08/19 08:41 PM 32.7x Complete!
75246 agilhe20 20 houdini 1.9 Hours 5.7 min 08/19 07:57 PM 08/19 08:06 PM 12x Complete!
75245 agilhe20 20 houdini 0 Hours 0 min 08/19 07:56 PM 08/19 07:57 PM 0x Complete!
75244 dfowler 100 houdini 68.33 Hours 41 min 08/19 07:56 PM 08/19 09:15 PM 51.4x Complete!
75243 dfowler 1 houdini 0.17 Hours 10.4 min 08/19 07:44 PM 08/19 07:55 PM 1x Complete!
75242 agilhe20 100 houdini 9.74 Hours 5.8 min 08/19 07:39 PM 08/19 07:51 PM 49.8x Complete!
75241 agilhe20 100 houdini 0.22 Hours 0.1 min 08/19 07:36 PM 08/19 07:36 PM 19.7x Complete!
75240 jfortu23 100 arnold 29.25 Hours 17.5 min 08/19 07:19 PM 08/19 08:01 PM 41.8x Complete!
75239 dfowler 2 houdini 0.38 Hours 11.3 min 08/19 07:18 PM 08/19 07:44 PM 0.9x Complete!
75238 mbange20 3 arnold 3.29 Hours 65.7 min 08/19 07:08 PM 08/19 08:23 PM 2.6x Complete!
75237 yatian22 100 arnold 56.57 Hours 33.9 min 08/19 06:48 PM 08/19 08:10 PM 41.2x Complete!
75236 jfortu23 100 arnold 29.6 Hours 17.8 min 08/19 06:22 PM 08/19 07:01 PM 45.4x Complete!
75235 chulee22 50 arnold 0 Hours 0 min 08/19 05:52 PM 08/19 05:53 PM 0x Complete!
75234 jfortu23 90 arnold 4.2 Hours 2.8 min 08/19 05:51 PM 08/19 06:00 PM 26.4x Complete!
75233 dfowler 2 houdini 0.87 Hours 26.2 min 08/19 05:43 PM 08/19 06:23 PM 1.3x Complete!
75232 spowel21 22 arnold 14.2 Hours 38.7 min 08/19 05:25 PM 08/19 06:20 PM 15.4x Complete!
75231 dfowler 2 houdini 0.88 Hours 26.5 min 08/19 05:10 PM 08/19 05:40 PM 1.8x Complete!
75230 jfortu23 100 arnold 15.89 Hours 9.5 min 08/19 05:04 PM 08/19 05:23 PM 50.2x Complete!
75229 mclayt22 1 arnold 0.3 Hours 17.8 min 08/19 04:49 PM 08/19 05:08 PM 1x Complete!
75228 jfortu23 100 arnold 17.6 Hours 10.6 min 08/19 04:38 PM 08/19 04:57 PM 55x Complete!
75227 spowel21 100 arnold 71.86 Hours 43.1 min 08/19 04:22 PM 08/19 05:25 PM 69.2x Complete!
75226 jfortu23 90 arnold 9.52 Hours 6.3 min 08/19 04:12 PM 08/19 04:22 PM 53.3x Complete!
75225 dfowler 2 houdini 0.43 Hours 13 min 08/19 04:02 PM 08/19 04:16 PM 1.8x Complete!
75224 spowel21 21 arnold 10.48 Hours 30 min 08/19 03:40 PM 08/19 04:21 PM 15.3x Complete!
75223 yatian22 100 arnold 58.57 Hours 35.1 min 08/19 03:38 PM 08/19 05:01 PM 42.7x Complete!
75222 jfortu23 100 arnold 11.44 Hours 6.9 min 08/19 03:09 PM 08/19 03:21 PM 55x Complete!
75221 dfowler 2 houdini 0.38 Hours 11.3 min 08/19 03:04 PM 08/19 03:17 PM 1.7x Complete!
75220 mbange20 9 arnold 9.05 Hours 60.4 min 08/19 02:58 PM 08/19 04:58 PM 4.5x Complete!
75219 jfortu23 100 arnold 12.77 Hours 7.7 min 08/19 02:47 PM 08/19 03:00 PM 55.6x Complete!
Copyright 2014 Savannah College of Art and Design